createdAt,value
2018-02-18T00:00:07.340Z,22.13
2018-02-18T00:02:35.591Z,18.27
2018-02-18T00:05:03.091Z,11.00
2018-02-18T00:07:30.608Z,12.77
2018-02-18T00:09:58.928Z,14.23
2018-02-18T00:12:27.218Z,16.50
2018-02-18T00:14:56.647Z,21.20
2018-02-18T00:17:24.167Z,10.07
2018-02-18T00:19:52.440Z,21.80
2018-02-18T00:22:20.765Z,17.52
2018-02-18T00:24:48.260Z,20.17
2018-02-18T00:27:15.767Z,20.20
2018-02-18T00:29:43.294Z,17.57
2018-02-18T00:32:10.831Z,13.68
2018-02-18T00:34:38.342Z,23.58
2018-02-18T00:37:06.619Z,13.07
2018-02-18T00:39:34.892Z,19.70
2018-02-18T00:42:02.404Z,13.77
2018-02-18T00:44:29.937Z,22.62
2018-02-18T00:46:58.198Z,15.47
2018-02-18T00:49:25.760Z,18.02
2018-02-18T00:51:53.244Z,15.50
2018-02-18T00:54:21.519Z,14.30
2018-02-18T00:56:49.780Z,16.50
2018-02-18T00:59:18.555Z,13.03
2018-02-18T01:01:49.170Z,17.10
2018-02-18T01:04:17.013Z,13.67
2018-02-18T01:06:44.522Z,11.00
2018-02-18T01:09:12.080Z,17.85
2018-02-18T01:11:39.782Z,12.75
2018-02-18T01:14:07.298Z,20.63
2018-02-18T01:16:34.801Z,14.47
2018-02-18T01:19:02.352Z,12.63
2018-02-18T01:21:29.886Z,21.37
2018-02-18T01:23:57.403Z,21.60
2018-02-18T01:26:25.686Z,18.30
2018-02-18T01:28:53.966Z,18.73
2018-02-18T01:31:22.252Z,15.57
2018-02-18T01:33:50.519Z,16.90
2018-02-18T01:36:18.041Z,12.30
2018-02-18T01:38:45.569Z,12.30
2018-02-18T01:41:13.853Z,16.80
2018-02-18T01:43:41.366Z,6.90
2018-02-18T01:46:08.877Z,10.90
2018-02-18T01:48:36.371Z,12.97
2018-02-18T01:51:03.906Z,12.60
2018-02-18T01:53:31.393Z,8.20
2018-02-18T01:55:58.942Z,13.57
2018-02-18T01:58:27.124Z,19.40
2018-02-18T02:00:54.683Z,22.15
2018-02-18T02:03:22.193Z,8.90
2018-02-18T02:05:49.837Z,14.05
2018-02-18T02:08:17.325Z,10.70
2018-02-18T02:10:44.851Z,13.17
2018-02-18T02:13:12.343Z,8.77
2018-02-18T02:15:39.855Z,17.13
2018-02-18T02:18:08.121Z,14.47
2018-02-18T02:20:36.386Z,15.35
2018-02-18T02:23:03.883Z,18.80
2018-02-18T02:25:31.403Z,12.82
2018-02-18T02:27:58.936Z,13.03
2018-02-18T02:30:26.436Z,16.63
2018-02-18T02:32:54.696Z,14.75
2018-02-18T02:35:22.193Z,16.23
2018-02-18T02:37:49.684Z,13.13
2018-02-18T02:40:17.193Z,12.33
2018-02-18T02:42:44.690Z,16.93
2018-02-18T02:45:12.960Z,15.80
2018-02-18T02:47:40.539Z,12.60
2018-02-18T02:50:08.829Z,14.87
2018-02-18T02:52:37.096Z,10.27
2018-02-18T02:55:05.365Z,16.20
2018-02-18T02:57:34.408Z,11.47
2018-02-18T03:00:02.709Z,21.17
2018-02-18T03:02:30.223Z,12.93
2018-02-18T03:04:58.497Z,14.47
2018-02-18T03:07:26.985Z,9.90
2018-02-18T03:09:55.404Z,12.57
2018-02-18T03:12:22.894Z,12.40
2018-02-18T03:14:50.414Z,15.27
2018-02-18T03:17:17.937Z,13.67
2018-02-18T03:19:45.473Z,21.17
2018-02-18T03:22:12.973Z,15.13
2018-02-18T03:24:41.265Z,18.40
2018-02-18T03:27:09.575Z,21.07
2018-02-18T03:29:37.800Z,23.43
2018-02-18T03:32:06.077Z,19.03
2018-02-18T03:34:33.595Z,26.73
2018-02-18T03:37:01.107Z,25.33
2018-02-18T03:39:28.627Z,24.43
2018-02-18T03:41:56.160Z,24.53
2018-02-18T03:44:24.442Z,23.60
2018-02-18T03:46:52.729Z,28.63
2018-02-18T03:49:20.992Z,21.53
2018-02-18T03:51:48.499Z,33.53
2018-02-18T03:54:15.989Z,26.50
2018-02-18T03:56:43.526Z,21.30
2018-02-18T03:59:11.590Z,20.57
2018-02-18T04:01:41.712Z,18.27
2018-02-18T04:04:09.552Z,14.77
2018-02-18T04:06:37.070Z,12.35
2018-02-18T04:09:04.559Z,19.57
2018-02-18T04:11:32.165Z,15.95
2018-02-18T04:14:00.476Z,17.03
2018-02-18T04:16:27.991Z,13.52
2018-02-18T04:18:55.475Z,9.40
2018-02-18T04:21:23.750Z,14.20
2018-02-18T04:23:52.002Z,10.07
2018-02-18T04:26:20.302Z,14.03
2018-02-18T04:28:47.963Z,11.97
2018-02-18T04:31:16.250Z,9.50
2018-02-18T04:33:44.525Z,14.00
2018-02-18T04:36:12.038Z,17.00
2018-02-18T04:38:39.533Z,9.37
2018-02-18T04:41:07.074Z,17.00
2018-02-18T04:43:34.881Z,10.17
2018-02-18T04:46:03.156Z,17.10
2018-02-18T04:48:31.342Z,15.00
2018-02-18T04:50:58.832Z,10.50
2018-02-18T04:53:27.102Z,10.70
2018-02-18T04:55:55.369Z,12.73
2018-02-18T04:58:23.627Z,16.20
2018-02-18T05:00:51.977Z,12.93
2018-02-18T05:03:19.480Z,16.23
2018-02-18T05:05:46.969Z,12.47
2018-02-18T05:08:15.248Z,10.37
2018-02-18T05:10:43.524Z,11.83
2018-02-18T05:13:11.822Z,10.70
2018-02-18T05:15:40.089Z,10.97
2018-02-18T05:18:08.363Z,16.10
2018-02-18T05:20:35.861Z,12.80
2018-02-18T05:23:03.388Z,14.02
2018-02-18T05:25:31.656Z,11.23
2018-02-18T05:27:59.947Z,14.53
2018-02-18T05:30:27.478Z,19.27
2018-02-18T05:32:55.000Z,13.63
2018-02-18T05:35:23.262Z,17.43
2018-02-18T05:37:51.537Z,13.03
2018-02-18T05:40:19.024Z,13.63
2018-02-18T05:42:46.672Z,16.60
2018-02-18T05:45:14.959Z,15.30
2018-02-18T05:47:43.238Z,15.30
2018-02-18T05:50:10.745Z,10.45
2018-02-18T05:52:38.255Z,8.77
2018-02-18T05:55:05.743Z,11.17
2018-02-18T05:57:34.065Z,6.33
2018-02-18T06:00:01.565Z,8.33
2018-02-18T06:02:29.842Z,8.40
2018-02-18T06:04:57.457Z,8.17
2018-02-18T06:07:25.047Z,8.37
2018-02-18T06:09:52.544Z,4.17
2018-02-18T06:12:20.822Z,4.40
2018-02-18T06:14:49.090Z,4.23
2018-02-18T06:17:16.586Z,3.30
2018-02-18T06:19:44.881Z,11.07
2018-02-18T06:22:12.416Z,6.57
2018-02-18T06:24:40.674Z,10.83
2018-02-18T06:27:08.195Z,4.60
2018-02-18T06:29:35.700Z,10.33
2018-02-18T06:32:03.201Z,11.10
2018-02-18T06:34:30.713Z,13.17
2018-02-18T06:36:58.200Z,8.67
2018-02-18T06:39:25.709Z,14.20
2018-02-18T06:41:53.197Z,9.37
2018-02-18T06:44:20.738Z,5.77
2018-02-18T06:46:48.228Z,7.60
2018-02-18T06:49:15.766Z,7.03
2018-02-18T06:51:43.257Z,5.73
2018-02-18T06:54:10.751Z,3.70
2018-02-18T06:56:39.033Z,5.10
2018-02-18T06:59:07.301Z,2.40
2018-02-18T07:01:34.789Z,6.60
2018-02-18T07:04:03.107Z,3.20
2018-02-18T07:06:30.638Z,1.37
2018-02-18T07:08:58.913Z,5.33
2018-02-18T07:11:27.185Z,5.47
2018-02-18T07:13:55.462Z,2.10
2018-02-18T07:16:23.714Z,3.87
2018-02-18T07:18:51.231Z,2.50
2018-02-18T07:21:18.721Z,2.83
2018-02-18T07:23:46.238Z,4.10
2018-02-18T07:26:14.525Z,8.13
2018-02-18T07:28:42.885Z,4.67
2018-02-18T07:31:10.357Z,3.20
2018-02-18T07:33:37.882Z,7.93
2018-02-18T07:36:05.643Z,2.47
2018-02-18T07:38:33.681Z,5.93
2018-02-18T07:41:01.177Z,9.50
2018-02-18T07:43:28.700Z,5.10
2018-02-18T07:45:56.949Z,4.07
2018-02-18T07:48:24.575Z,7.80
2018-02-18T07:50:52.064Z,11.83
2018-02-18T07:53:19.730Z,3.30
2018-02-18T07:55:47.233Z,5.93
2018-02-18T07:58:15.483Z,4.30
2018-02-18T08:00:42.980Z,7.90
2018-02-18T08:03:11.462Z,3.70
2018-02-18T08:05:39.727Z,5.93
2018-02-18T08:08:08.185Z,6.13
2018-02-18T08:10:35.663Z,2.07
2018-02-18T08:13:03.209Z,4.90
2018-02-18T08:15:30.728Z,8.67
2018-02-18T08:17:58.998Z,6.37
2018-02-18T08:20:27.268Z,5.80
2018-02-18T08:22:54.765Z,7.37
2018-02-18T08:25:22.262Z,13.17
2018-02-18T08:27:49.749Z,11.10
2018-02-18T08:30:17.482Z,4.77
2018-02-18T08:32:45.052Z,2.77
2018-02-18T08:35:12.993Z,8.43
2018-02-18T08:37:40.495Z,4.50
2018-02-18T08:40:08.001Z,7.57
2018-02-18T08:42:36.278Z,5.20
2018-02-18T08:45:04.638Z,7.93
2018-02-18T08:47:33.642Z,9.80
2018-02-18T08:50:01.192Z,11.57
2018-02-18T08:52:28.730Z,5.20
2018-02-18T08:54:56.349Z,2.60
2018-02-18T08:57:24.614Z,10.57
2018-02-18T08:59:52.128Z,6.10
2018-02-18T09:02:19.625Z,4.60
2018-02-18T09:04:47.200Z,6.73
2018-02-18T09:07:14.737Z,6.93
2018-02-18T09:09:42.258Z,17.77
2018-02-18T09:12:09.767Z,4.33
2018-02-18T09:14:37.398Z,3.27
2018-02-18T09:17:04.906Z,4.40
2018-02-18T09:19:32.418Z,6.83
2018-02-18T09:21:59.922Z,7.47
2018-02-18T09:24:27.431Z,7.07
2018-02-18T09:26:54.929Z,5.00
2018-02-18T09:29:22.426Z,4.60
2018-02-18T09:31:51.017Z,8.37
2018-02-18T09:34:18.512Z,3.73
2018-02-18T09:36:46.766Z,5.60
2018-02-18T09:39:14.278Z,4.57
2018-02-18T09:41:41.789Z,5.07
2018-02-18T09:44:09.386Z,4.67
2018-02-18T09:46:37.653Z,8.83
2018-02-18T09:49:05.929Z,4.03
2018-02-18T09:51:33.421Z,4.70
2018-02-18T09:54:01.715Z,5.83
2018-02-18T09:56:29.808Z,7.50
2018-02-18T09:58:58.467Z,11.23
2018-02-18T10:01:26.929Z,10.13
2018-02-18T10:03:55.205Z,10.50
2018-02-18T10:06:22.769Z,12.40
2018-02-18T10:08:50.282Z,39.30
2018-02-18T10:11:17.778Z,12.57
2018-02-18T10:13:45.275Z,5.33
2018-02-18T10:16:13.556Z,16.40
2018-02-18T10:18:41.807Z,4.60
2018-02-18T10:21:09.320Z,9.00
2018-02-18T10:23:36.818Z,11.40
2018-02-18T10:26:04.358Z,11.30
2018-02-18T10:28:31.857Z,9.47
2018-02-18T10:30:59.387Z,7.07
2018-02-18T10:33:27.406Z,2.30
2018-02-18T10:35:54.911Z,4.20
2018-02-18T10:38:22.404Z,9.33
2018-02-18T10:40:49.903Z,9.67
2018-02-18T10:43:18.582Z,7.93
2018-02-18T10:45:46.861Z,5.43
2018-02-18T10:48:14.353Z,6.18
2018-02-18T10:50:42.634Z,6.00
2018-02-18T10:53:10.929Z,2.00
2018-02-18T10:55:38.428Z,4.30
2018-02-18T10:58:05.911Z,5.17
2018-02-18T11:00:33.495Z,8.50
2018-02-18T11:03:01.759Z,3.93
2018-02-18T11:05:29.370Z,3.33
2018-02-18T11:07:56.870Z,5.13
2018-02-18T11:10:24.386Z,6.37
2018-02-18T11:12:51.974Z,10.37
2018-02-18T11:15:19.491Z,3.80
2018-02-18T11:17:47.777Z,5.00
2018-02-18T11:20:16.124Z,8.13
2018-02-18T11:22:43.762Z,13.13
2018-02-18T11:25:11.617Z,6.37
2018-02-18T11:27:39.127Z,3.13
2018-02-18T11:30:08.158Z,4.30
2018-02-18T11:32:36.413Z,4.57
2018-02-18T11:35:03.923Z,6.07
2018-02-18T11:37:31.404Z,7.33
2018-02-18T11:39:58.895Z,6.10
2018-02-18T11:42:26.399Z,4.10
2018-02-18T11:44:54.671Z,7.37
2018-02-18T11:47:22.220Z,5.43
2018-02-18T11:49:49.729Z,4.30
2018-02-18T11:52:17.304Z,3.20
2018-02-18T11:54:44.781Z,3.43
2018-02-18T11:57:12.290Z,5.00
2018-02-18T11:59:40.546Z,5.13
2018-02-18T12:02:08.083Z,6.23
2018-02-18T12:04:35.615Z,7.00
2018-02-18T12:07:03.125Z,15.67
2018-02-18T12:09:30.645Z,6.43
2018-02-18T12:11:58.201Z,5.07
2018-02-18T12:14:25.711Z,3.37
2018-02-18T12:16:53.242Z,10.07
2018-02-18T12:19:20.793Z,5.50
2018-02-18T12:21:49.451Z,5.37
2018-02-18T12:24:16.940Z,9.97
2018-02-18T12:26:45.205Z,12.67
2018-02-18T12:29:12.719Z,16.40
2018-02-18T12:31:41.539Z,8.93
2018-02-18T12:34:09.052Z,14.93
2018-02-18T12:36:36.649Z,8.50
2018-02-18T12:39:04.138Z,8.07
2018-02-18T12:41:31.676Z,7.33
2018-02-18T12:43:59.247Z,6.20
2018-02-18T12:46:26.749Z,6.37
2018-02-18T12:48:55.247Z,9.70
2018-02-18T12:51:22.759Z,17.83
2018-02-18T12:53:50.253Z,9.00
2018-02-18T12:56:18.536Z,7.47
2018-02-18T12:58:46.021Z,10.03
2018-02-18T13:01:14.398Z,6.90
2018-02-18T13:03:42.678Z,9.63
2018-02-18T13:06:10.976Z,7.83
2018-02-18T13:08:38.466Z,4.70
2018-02-18T13:11:05.952Z,9.60
2018-02-18T13:13:33.462Z,6.70
2018-02-18T13:16:00.938Z,6.53
2018-02-18T13:18:28.598Z,5.20
2018-02-18T13:20:56.089Z,11.17
2018-02-18T13:23:23.599Z,9.17
2018-02-18T13:25:51.893Z,11.20
2018-02-18T13:28:19.392Z,5.60
2018-02-18T13:30:46.911Z,7.47
2018-02-18T13:33:14.416Z,7.57
2018-02-18T13:35:41.897Z,11.37
2018-02-18T13:38:09.495Z,6.43
2018-02-18T13:40:37.783Z,6.47
2018-02-18T13:43:06.060Z,8.13
2018-02-18T13:45:34.330Z,13.10
2018-02-18T13:48:02.634Z,11.20
2018-02-18T13:50:30.980Z,10.83
2018-02-18T13:52:58.497Z,9.10
2018-02-18T13:55:26.443Z,9.83
2018-02-18T13:57:54.746Z,8.63
2018-02-18T14:00:22.274Z,17.67
2018-02-18T14:02:50.569Z,6.70
2018-02-18T14:05:18.874Z,6.27
2018-02-18T14:07:46.382Z,11.10
2018-02-18T14:10:13.868Z,11.07
2018-02-18T14:12:42.213Z,13.53
2018-02-18T14:15:09.741Z,5.60
2018-02-18T14:17:37.281Z,3.73
2018-02-18T14:20:05.581Z,8.77
2018-02-18T14:22:33.106Z,13.53
2018-02-18T14:25:00.607Z,14.30
2018-02-18T14:27:28.125Z,8.33
2018-02-18T14:29:55.730Z,15.47
2018-02-18T14:32:24.023Z,11.70
2018-02-18T14:34:51.542Z,14.03
2018-02-18T14:37:19.118Z,14.33
2018-02-18T14:39:47.421Z,15.13
2018-02-18T14:42:26.870Z,10.37
2018-02-18T14:45:06.357Z,13.13
2018-02-18T14:47:45.805Z,9.00
2018-02-18T14:50:25.236Z,12.70
2018-02-18T14:53:04.460Z,15.37
2018-02-18T14:58:41.778Z,20.90
2018-02-18T15:01:10.058Z,14.37
2018-02-18T15:03:38.361Z,8.27
2018-02-18T15:06:05.850Z,21.33
2018-02-18T15:08:33.377Z,16.97
2018-02-18T15:11:00.900Z,17.50
2018-02-18T15:13:28.426Z,14.43
2018-02-18T15:15:56.342Z,9.70
2018-02-18T15:18:23.852Z,8.37
2018-02-18T15:20:51.365Z,9.00
2018-02-18T15:23:18.862Z,19.90
2018-02-18T15:25:46.562Z,12.30
2018-02-18T15:28:14.119Z,11.50
2018-02-18T15:30:41.689Z,13.80
2018-02-18T15:33:09.221Z,9.97
2018-02-18T15:35:36.767Z,10.77
2018-02-18T15:38:05.046Z,7.37
2018-02-18T15:40:32.570Z,11.00
2018-02-18T15:43:00.091Z,11.20
2018-02-18T15:45:28.364Z,11.00
2018-02-18T15:47:56.639Z,11.30
2018-02-18T15:50:24.955Z,37.23
2018-02-18T15:52:52.654Z,8.93
2018-02-18T15:55:20.165Z,10.03
2018-02-18T15:57:48.456Z,16.40
2018-02-18T16:00:15.985Z,14.83
2018-02-18T16:02:44.272Z,11.27
2018-02-18T16:05:11.790Z,10.30
2018-02-18T16:07:39.286Z,13.97
2018-02-18T16:10:06.804Z,16.57
2018-02-18T16:12:34.559Z,10.47
2018-02-18T16:15:02.085Z,11.23
2018-02-18T16:17:29.647Z,15.50
2018-02-18T16:19:57.953Z,6.80
2018-02-18T16:22:26.844Z,7.90
2018-02-18T16:24:54.372Z,26.60
2018-02-18T16:27:21.881Z,17.93
2018-02-18T16:29:50.133Z,16.30
2018-02-18T16:32:17.731Z,13.10
2018-02-18T16:34:46.233Z,13.10
2018-02-18T16:37:13.728Z,14.57
2018-02-18T16:39:41.222Z,19.85
2018-02-18T16:42:08.839Z,16.80
2018-02-18T16:44:36.317Z,18.63
2018-02-18T16:47:03.861Z,28.20
2018-02-18T16:49:31.385Z,21.37
2018-02-18T16:51:59.652Z,19.53
2018-02-18T16:54:27.168Z,9.93
2018-02-18T16:56:54.669Z,14.07
2018-02-18T16:59:22.175Z,11.77
2018-02-18T17:01:49.694Z,25.23
2018-02-18T17:04:17.292Z,14.33
2018-02-18T17:06:44.998Z,15.83
2018-02-18T17:09:13.182Z,18.80
2018-02-18T17:11:41.316Z,19.83
2018-02-18T17:14:09.596Z,21.60
2018-02-18T17:16:37.859Z,21.10
2018-02-18T17:19:06.174Z,19.17
2018-02-18T17:21:33.717Z,25.07
2018-02-18T17:24:02.660Z,32.00
2018-02-18T17:26:30.197Z,29.50
2018-02-18T17:28:57.718Z,27.53
2018-02-18T17:31:25.250Z,25.70
2018-02-18T17:33:53.377Z,25.13
2018-02-18T17:36:20.881Z,24.43
2018-02-18T17:38:48.423Z,22.10
2018-02-18T17:41:16.702Z,23.33
2018-02-18T17:43:44.197Z,18.33
2018-02-18T17:46:11.702Z,18.50
2018-02-18T17:48:39.210Z,22.13
2018-02-18T17:51:06.708Z,26.77
2018-02-18T17:53:34.249Z,24.77
2018-02-18T17:56:01.797Z,23.20
2018-02-18T17:58:29.297Z,20.60
2018-02-18T18:00:56.824Z,31.80
2018-02-18T18:03:24.332Z,41.30
2018-02-18T18:05:53.355Z,38.47
2018-02-18T18:08:21.657Z,22.77
2018-02-18T18:10:49.185Z,22.57
2018-02-18T18:13:17.474Z,21.57
2018-02-18T18:15:45.762Z,17.83
2018-02-18T18:18:13.304Z,14.97
2018-02-18T18:20:40.833Z,21.93
2018-02-18T18:23:08.364Z,20.57
2018-02-18T18:25:35.884Z,23.80
2018-02-18T18:28:04.365Z,21.47
2018-02-18T18:30:31.901Z,20.83
2018-02-18T18:32:59.463Z,16.10
2018-02-18T18:35:27.131Z,21.30
2018-02-18T18:37:54.659Z,27.30
2018-02-18T18:40:24.250Z,23.97
2018-02-18T18:42:52.547Z,35.93
2018-02-18T18:45:20.849Z,14.47
2018-02-18T18:47:48.359Z,11.80
2018-02-18T18:50:15.884Z,11.73
2018-02-18T18:52:48.090Z,12.20
2018-02-18T18:55:15.606Z,16.57
2018-02-18T18:57:43.871Z,13.90
2018-02-18T19:00:12.183Z,22.77
2018-02-18T19:02:39.698Z,32.47
2018-02-18T19:05:08.001Z,39.90
2018-02-18T19:07:36.290Z,27.63
2018-02-18T19:10:04.645Z,17.57
2018-02-18T19:12:33.176Z,20.73
2018-02-18T19:15:00.715Z,11.10
2018-02-18T19:17:29.000Z,14.07
2018-02-18T19:19:57.419Z,26.70
2018-02-18T19:22:24.927Z,24.63
2018-02-18T19:24:52.444Z,27.00
2018-02-18T19:27:19.989Z,20.13
2018-02-18T19:29:47.508Z,20.33
2018-02-18T19:32:15.865Z,20.33
2018-02-18T19:34:43.366Z,17.47
2018-02-18T19:37:10.875Z,11.77
2018-02-18T19:39:38.424Z,17.27
2018-02-18T19:42:05.927Z,10.47
2018-02-18T19:44:33.436Z,29.60
2018-02-18T19:47:01.737Z,20.37
2018-02-18T19:49:29.269Z,19.03
2018-02-18T19:51:57.754Z,23.23
2018-02-18T19:54:25.353Z,23.70
2018-02-18T19:56:52.982Z,24.33
2018-02-18T19:59:21.219Z,24.70
2018-02-18T20:01:48.719Z,19.00
2018-02-18T20:04:16.233Z,15.93
2018-02-18T20:06:43.793Z,16.50
2018-02-18T20:09:11.328Z,8.13
2018-02-18T20:11:39.842Z,18.23
2018-02-18T20:14:07.394Z,18.93
2018-02-18T20:16:35.693Z,24.13
2018-02-18T20:19:03.223Z,26.53
2018-02-18T20:21:31.543Z,18.60
2018-02-18T20:23:59.858Z,18.17
2018-02-18T20:26:28.188Z,16.37
2018-02-18T20:28:55.726Z,39.20
2018-02-18T20:31:24.060Z,20.07
2018-02-18T20:33:51.591Z,24.10
2018-02-18T20:36:19.149Z,16.50
2018-02-18T20:38:46.758Z,12.23
2018-02-18T20:41:14.281Z,16.40
2018-02-18T20:43:42.594Z,17.07
2018-02-18T20:46:10.146Z,16.40
2018-02-18T20:48:37.684Z,15.10
2018-02-18T20:51:06.524Z,18.20
2018-02-18T20:53:34.798Z,16.33
2018-02-18T20:56:03.113Z,14.90
2018-02-18T20:58:31.864Z,17.67
2018-02-18T21:00:59.731Z,12.93
2018-02-18T21:03:27.582Z,16.87
2018-02-18T21:05:55.110Z,11.47
2018-02-18T21:08:22.625Z,15.80
2018-02-18T21:10:50.134Z,13.67
2018-02-18T21:13:17.715Z,17.47
2018-02-18T21:15:46.183Z,14.17
2018-02-18T21:18:13.742Z,15.10
2018-02-18T21:20:41.248Z,11.70
2018-02-18T21:23:08.807Z,12.10
2018-02-18T21:25:36.332Z,23.63
2018-02-18T21:28:03.835Z,17.10
2018-02-18T21:30:32.116Z,18.57
2018-02-18T21:33:01.357Z,19.93
2018-02-18T21:35:28.870Z,17.33
2018-02-18T21:37:57.144Z,30.20
2018-02-18T21:40:25.497Z,21.50
2018-02-18T21:42:53.012Z,18.93
2018-02-18T21:45:21.315Z,30.03
2018-02-18T21:47:48.840Z,14.47
2018-02-18T21:50:17.175Z,18.97
2018-02-18T21:52:44.682Z,11.83
2018-02-18T21:55:12.968Z,19.07
2018-02-18T21:57:41.717Z,20.07
2018-02-18T22:00:09.251Z,15.33
2018-02-18T22:02:36.794Z,17.53
2018-02-18T22:05:04.514Z,18.17
2018-02-18T22:07:32.125Z,21.80
2018-02-18T22:10:00.413Z,19.23
2018-02-18T22:12:27.960Z,23.67
2018-02-18T22:14:55.513Z,17.70
2018-02-18T22:17:23.346Z,18.40
2018-02-18T22:19:51.586Z,16.27
2018-02-18T22:22:21.963Z,20.37
2018-02-18T22:24:49.469Z,18.20
2018-02-18T22:27:17.773Z,19.73
2018-02-18T22:29:45.289Z,23.13
2018-02-18T22:32:12.820Z,22.23
2018-02-18T22:34:40.877Z,18.97
2018-02-18T22:37:10.221Z,21.50
2018-02-18T22:39:37.717Z,15.97
2018-02-18T22:42:06.080Z,14.40
2018-02-18T22:44:33.628Z,20.17
2018-02-18T22:47:02.810Z,21.67
2018-02-18T22:49:30.348Z,22.77
2018-02-18T22:51:58.700Z,22.73
2018-02-18T22:54:26.766Z,24.73
2018-02-18T22:56:54.333Z,16.80
2018-02-18T22:59:22.842Z,16.23
2018-02-18T23:01:50.360Z,19.20
2018-02-18T23:04:17.908Z,14.93
2018-02-18T23:06:45.445Z,19.87
2018-02-18T23:09:13.768Z,14.00
2018-02-18T23:11:41.313Z,19.20
2018-02-18T23:14:08.841Z,18.20
2018-02-18T23:16:37.112Z,17.10
2018-02-18T23:19:05.734Z,16.47
2018-02-18T23:21:33.223Z,18.73
2018-02-18T23:24:00.749Z,16.33
2018-02-18T23:26:29.040Z,17.73
2018-02-18T23:28:57.138Z,20.20
2018-02-18T23:31:24.704Z,13.80
2018-02-18T23:33:52.283Z,12.68
2018-02-18T23:36:19.789Z,16.58
2018-02-18T23:38:47.293Z,19.95
2018-02-18T23:41:15.642Z,15.77
2018-02-18T23:43:43.251Z,18.02
2018-02-18T23:46:10.763Z,14.85
2018-02-18T23:48:39.037Z,16.60
2018-02-18T23:51:06.563Z,14.90
2018-02-18T23:53:34.080Z,16.85
2018-02-18T23:56:02.565Z,16.98
2018-02-18T23:58:30.164Z,15.85
